sensor_id;sensor_type;location;lat;lon;timestamp;P1;durP1;ratioP1;P2;durP2;ratioP2
7525;SDS011;3804;50.860;6.208;2023-04-15T00:00:37;5.23;;;2.70;;
7525;SDS011;3804;50.860;6.208;2023-04-15T00:03:04;4.17;;;2.40;;
7525;SDS011;3804;50.860;6.208;2023-04-15T00:05:31;5.87;;;2.57;;
7525;SDS011;3804;50.860;6.208;2023-04-15T00:07:59;4.63;;;2.73;;
7525;SDS011;3804;50.860;6.208;2023-04-15T00:10:26;4.97;;;2.30;;
7525;SDS011;3804;50.860;6.208;2023-04-15T00:12:53;4.33;;;2.40;;
7525;SDS011;3804;50.860;6.208;2023-04-15T00:15:20;3.60;;;2.20;;
7525;SDS011;3804;50.860;6.208;2023-04-15T00:17:49;5.20;;;2.23;;
7525;SDS011;3804;50.860;6.208;2023-04-15T00:20:16;4.07;;;2.27;;
7525;SDS011;3804;50.860;6.208;2023-04-15T00:22:43;3.57;;;2.00;;
7525;SDS011;3804;50.860;6.208;2023-04-15T00:25:09;3.47;;;2.10;;
7525;SDS011;3804;50.860;6.208;2023-04-15T00:27:37;3.50;;;2.00;;
7525;SDS011;3804;50.860;6.208;2023-04-15T00:30:04;4.77;;;2.10;;
7525;SDS011;3804;50.860;6.208;2023-04-15T00:32:31;3.13;;;1.63;;
7525;SDS011;3804;50.860;6.208;2023-04-15T00:34:58;5.30;;;1.87;;
7525;SDS011;3804;50.860;6.208;2023-04-15T00:37:25;5.03;;;2.00;;
7525;SDS011;3804;50.860;6.208;2023-04-15T00:39:51;3.67;;;1.90;;
7525;SDS011;3804;50.860;6.208;2023-04-15T00:42:18;3.20;;;1.80;;
7525;SDS011;3804;50.860;6.208;2023-04-15T00:44:45;4.10;;;1.87;;
7525;SDS011;3804;50.860;6.208;2023-04-15T00:47:12;3.90;;;2.37;;
7525;SDS011;3804;50.860;6.208;2023-04-15T00:49:39;4.63;;;1.83;;
7525;SDS011;3804;50.860;6.208;2023-04-15T00:52:05;3.97;;;2.17;;
7525;SDS011;3804;50.860;6.208;2023-04-15T00:54:32;5.20;;;2.13;;
7525;SDS011;3804;50.860;6.208;2023-04-15T00:56:59;5.63;;;2.10;;
7525;SDS011;3804;50.860;6.208;2023-04-15T00:59:26;5.17;;;1.97;;
7525;SDS011;3804;50.860;6.208;2023-04-15T01:01:53;3.67;;;1.90;;
7525;SDS011;3804;50.860;6.208;2023-04-15T01:04:20;5.67;;;1.97;;
7525;SDS011;3804;50.860;6.208;2023-04-15T01:06:47;2.37;;;1.83;;
7525;SDS011;3804;50.860;6.208;2023-04-15T01:09:28;3.90;;;1.90;;
7525;SDS011;3804;50.860;6.208;2023-04-15T01:11:55;2.30;;;1.60;;
7525;SDS011;3804;50.860;6.208;2023-04-15T01:14:23;4.87;;;1.93;;
7525;SDS011;3804;50.860;6.208;2023-04-15T01:16:51;3.93;;;1.70;;
7525;SDS011;3804;50.860;6.208;2023-04-15T01:19:18;4.83;;;2.30;;
7525;SDS011;3804;50.860;6.208;2023-04-15T01:21:45;3.70;;;1.30;;
7525;SDS011;3804;50.860;6.208;2023-04-15T01:24:12;5.97;;;1.87;;
7525;SDS011;3804;50.860;6.208;2023-04-15T01:26:41;3.27;;;1.60;;
7525;SDS011;3804;50.860;6.208;2023-04-15T01:29:10;4.03;;;1.80;;
7525;SDS011;3804;50.860;6.208;2023-04-15T01:31:37;5.47;;;1.53;;
7525;SDS011;3804;50.860;6.208;2023-04-15T01:34:22;3.63;;;1.57;;
7525;SDS011;3804;50.860;6.208;2023-04-15T01:37:11;2.13;;;1.60;;
7525;SDS011;3804;50.860;6.208;2023-04-15T01:39:37;3.37;;;1.40;;
7525;SDS011;3804;50.860;6.208;2023-04-15T01:42:04;5.57;;;1.80;;
7525;SDS011;3804;50.860;6.208;2023-04-15T01:44:32;2.03;;;1.70;;
7525;SDS011;3804;50.860;6.208;2023-04-15T01:47:00;4.00;;;2.00;;
7525;SDS011;3804;50.860;6.208;2023-04-15T01:49:29;4.03;;;1.50;;
7525;SDS011;3804;50.860;6.208;2023-04-15T01:51:56;4.03;;;1.47;;
7525;SDS011;3804;50.860;6.208;2023-04-15T01:54:25;4.07;;;1.97;;
7525;SDS011;3804;50.860;6.208;2023-04-15T01:56:54;1.53;;;1.40;;
7525;SDS011;3804;50.860;6.208;2023-04-15T01:59:24;2.47;;;1.50;;
7525;SDS011;3804;50.860;6.208;2023-04-15T02:01:54;4.53;;;1.40;;
7525;SDS011;3804;50.860;6.208;2023-04-15T02:04:23;3.60;;;1.73;;
7525;SDS011;3804;50.860;6.208;2023-04-15T02:06:51;2.90;;;1.47;;
7525;SDS011;3804;50.860;6.208;2023-04-15T02:09:21;6.07;;;1.83;;
7525;SDS011;3804;50.860;6.208;2023-04-15T02:11:50;2.80;;;1.57;;
7525;SDS011;3804;50.860;6.208;2023-04-15T02:14:18;4.40;;;2.10;;
7525;SDS011;3804;50.860;6.208;2023-04-15T02:16:46;4.00;;;1.90;;
7525;SDS011;3804;50.860;6.208;2023-04-15T02:19:16;8.10;;;2.30;;
7525;SDS011;3804;50.860;6.208;2023-04-15T02:21:44;5.03;;;2.40;;
7525;SDS011;3804;50.860;6.208;2023-04-15T02:24:12;9.20;;;2.73;;
7525;SDS011;3804;50.860;6.208;2023-04-15T02:26:41;5.63;;;3.10;;
7525;SDS011;3804;50.860;6.208;2023-04-15T02:29:09;8.33;;;3.20;;
7525;SDS011;3804;50.860;6.208;2023-04-15T02:31:37;6.83;;;3.03;;
7525;SDS011;3804;50.860;6.208;2023-04-15T02:34:07;5.83;;;3.30;;
7525;SDS011;3804;50.860;6.208;2023-04-15T02:36:35;11.33;;;3.70;;
7525;SDS011;3804;50.860;6.208;2023-04-15T02:39:05;7.80;;;3.63;;
7525;SDS011;3804;50.860;6.208;2023-04-15T02:41:34;8.17;;;3.40;;
7525;SDS011;3804;50.860;6.208;2023-04-15T02:44:03;10.87;;;4.83;;
7525;SDS011;3804;50.860;6.208;2023-04-15T02:46:31;10.93;;;4.30;;
7525;SDS011;3804;50.860;6.208;2023-04-15T02:48:59;14.43;;;4.60;;
7525;SDS011;3804;50.860;6.208;2023-04-15T02:51:30;9.63;;;4.37;;
7525;SDS011;3804;50.860;6.208;2023-04-15T02:53:59;9.43;;;4.50;;
7525;SDS011;3804;50.860;6.208;2023-04-15T02:56:27;12.10;;;5.13;;
7525;SDS011;3804;50.860;6.208;2023-04-15T02:58:55;12.93;;;5.27;;
7525;SDS011;3804;50.860;6.208;2023-04-15T03:01:24;14.63;;;5.67;;
7525;SDS011;3804;50.860;6.208;2023-04-15T03:03:53;14.43;;;5.40;;
7525;SDS011;3804;50.860;6.208;2023-04-15T03:06:21;10.40;;;5.03;;
7525;SDS011;3804;50.860;6.208;2023-04-15T03:08:50;11.60;;;4.80;;
7525;SDS011;3804;50.860;6.208;2023-04-15T03:11:18;13.47;;;5.27;;
7525;SDS011;3804;50.860;6.208;2023-04-15T03:13:46;12.73;;;5.30;;
7525;SDS011;3804;50.860;6.208;2023-04-15T03:16:31;9.87;;;4.70;;
7525;SDS011;3804;50.860;6.208;2023-04-15T03:19:00;14.37;;;6.00;;
7525;SDS011;3804;50.860;6.208;2023-04-15T03:21:29;12.37;;;4.93;;
7525;SDS011;3804;50.860;6.208;2023-04-15T03:23:57;9.30;;;4.50;;
7525;SDS011;3804;50.860;6.208;2023-04-15T03:26:29;13.20;;;4.53;;
7525;SDS011;3804;50.860;6.208;2023-04-15T03:29:01;8.43;;;4.10;;
7525;SDS011;3804;50.860;6.208;2023-04-15T03:31:29;9.90;;;4.27;;
7525;SDS011;3804;50.860;6.208;2023-04-15T03:33:57;10.90;;;3.80;;
7525;SDS011;3804;50.860;6.208;2023-04-15T03:36:28;5.37;;;3.43;;
7525;SDS011;3804;50.860;6.208;2023-04-15T03:38:56;9.73;;;3.87;;
7525;SDS011;3804;50.860;6.208;2023-04-15T03:41:24;8.10;;;3.13;;
7525;SDS011;3804;50.860;6.208;2023-04-15T03:43:53;7.53;;;3.60;;
7525;SDS011;3804;50.860;6.208;2023-04-15T03:46:22;6.60;;;2.87;;
7525;SDS011;3804;50.860;6.208;2023-04-15T03:48:50;8.97;;;3.23;;
7525;SDS011;3804;50.860;6.208;2023-04-15T03:51:18;6.23;;;3.13;;
7525;SDS011;3804;50.860;6.208;2023-04-15T03:53:46;5.20;;;3.20;;
7525;SDS011;3804;50.860;6.208;2023-04-15T03:56:14;5.50;;;2.93;;
7525;SDS011;3804;50.860;6.208;2023-04-15T03:58:42;5.83;;;2.63;;
7525;SDS011;3804;50.860;6.208;2023-04-15T04:01:10;8.83;;;2.97;;
7525;SDS011;3804;50.860;6.208;2023-04-15T04:03:38;7.23;;;2.60;;
7525;SDS011;3804;50.860;6.208;2023-04-15T04:06:07;4.27;;;2.43;;
7525;SDS011;3804;50.860;6.208;2023-04-15T04:08:36;5.83;;;2.50;;
7525;SDS011;3804;50.860;6.208;2023-04-15T04:11:04;6.73;;;2.60;;
7525;SDS011;3804;50.860;6.208;2023-04-15T04:13:32;4.17;;;2.60;;
7525;SDS011;3804;50.860;6.208;2023-04-15T04:16:00;5.23;;;2.80;;
7525;SDS011;3804;50.860;6.208;2023-04-15T04:18:29;7.53;;;2.73;;
7525;SDS011;3804;50.860;6.208;2023-04-15T04:20:57;4.30;;;2.27;;
7525;SDS011;3804;50.860;6.208;2023-04-15T04:23:25;5.93;;;2.57;;
7525;SDS011;3804;50.860;6.208;2023-04-15T04:25:54;8.10;;;2.87;;
7525;SDS011;3804;50.860;6.208;2023-04-15T04:28:22;8.47;;;3.93;;
7525;SDS011;3804;50.860;6.208;2023-04-15T04:30:50;7.00;;;2.93;;
7525;SDS011;3804;50.860;6.208;2023-04-15T04:33:18;6.23;;;3.70;;
7525;SDS011;3804;50.860;6.208;2023-04-15T04:35:46;5.77;;;3.60;;
7525;SDS011;3804;50.860;6.208;2023-04-15T04:38:14;8.97;;;3.47;;
7525;SDS011;3804;50.860;6.208;2023-04-15T04:40:43;11.63;;;3.67;;
7525;SDS011;3804;50.860;6.208;2023-04-15T04:43:12;10.70;;;3.20;;
7525;SDS011;3804;50.860;6.208;2023-04-15T04:45:40;7.13;;;3.20;;
7525;SDS011;3804;50.860;6.208;2023-04-15T04:48:08;6.77;;;3.07;;
7525;SDS011;3804;50.860;6.208;2023-04-15T04:50:37;6.33;;;3.13;;
7525;SDS011;3804;50.860;6.208;2023-04-15T04:53:05;7.53;;;3.23;;
7525;SDS011;3804;50.860;6.208;2023-04-15T04:55:33;7.13;;;2.60;;
7525;SDS011;3804;50.860;6.208;2023-04-15T04:58:04;6.53;;;2.80;;
7525;SDS011;3804;50.860;6.208;2023-04-15T05:00:32;7.47;;;2.80;;
7525;SDS011;3804;50.860;6.208;2023-04-15T05:03:00;10.23;;;2.73;;
7525;SDS011;3804;50.860;6.208;2023-04-15T05:05:29;5.27;;;2.80;;
7525;SDS011;3804;50.860;6.208;2023-04-15T05:07:57;5.57;;;2.53;;
7525;SDS011;3804;50.860;6.208;2023-04-15T05:10:25;6.83;;;2.97;;
7525;SDS011;3804;50.860;6.208;2023-04-15T05:12:54;6.60;;;2.73;;
7525;SDS011;3804;50.860;6.208;2023-04-15T05:15:22;7.23;;;2.70;;
7525;SDS011;3804;50.860;6.208;2023-04-15T05:17:50;6.87;;;2.87;;
7525;SDS011;3804;50.860;6.208;2023-04-15T05:20:18;10.57;;;3.40;;
7525;SDS011;3804;50.860;6.208;2023-04-15T05:22:46;8.17;;;3.50;;
7525;SDS011;3804;50.860;6.208;2023-04-15T05:25:14;4.33;;;2.83;;
7525;SDS011;3804;50.860;6.208;2023-04-15T05:27:43;7.00;;;3.03;;
7525;SDS011;3804;50.860;6.208;2023-04-15T05:30:11;6.93;;;3.00;;
7525;SDS011;3804;50.860;6.208;2023-04-15T05:32:40;5.00;;;3.50;;
7525;SDS011;3804;50.860;6.208;2023-04-15T05:35:08;9.60;;;3.83;;
7525;SDS011;3804;50.860;6.208;2023-04-15T05:37:36;8.07;;;3.60;;
7525;SDS011;3804;50.860;6.208;2023-04-15T05:40:04;7.53;;;3.50;;
7525;SDS011;3804;50.860;6.208;2023-04-15T05:42:33;9.30;;;3.23;;
7525;SDS011;3804;50.860;6.208;2023-04-15T05:45:01;8.53;;;3.53;;
7525;SDS011;3804;50.860;6.208;2023-04-15T05:47:32;6.00;;;3.10;;
7525;SDS011;3804;50.860;6.208;2023-04-15T05:50:00;7.63;;;3.60;;
7525;SDS011;3804;50.860;6.208;2023-04-15T05:52:28;8.50;;;3.50;;
7525;SDS011;3804;50.860;6.208;2023-04-15T05:54:56;11.60;;;3.43;;
7525;SDS011;3804;50.860;6.208;2023-04-15T05:57:24;8.80;;;4.07;;
7525;SDS011;3804;50.860;6.208;2023-04-15T05:59:52;5.70;;;3.47;;
7525;SDS011;3804;50.860;6.208;2023-04-15T06:02:21;8.03;;;3.47;;
7525;SDS011;3804;50.860;6.208;2023-04-15T06:04:49;10.70;;;3.77;;
7525;SDS011;3804;50.860;6.208;2023-04-15T06:07:17;11.10;;;4.00;;
7525;SDS011;3804;50.860;6.208;2023-04-15T06:09:45;9.07;;;4.07;;
7525;SDS011;3804;50.860;6.208;2023-04-15T06:12:13;5.80;;;3.27;;
7525;SDS011;3804;50.860;6.208;2023-04-15T06:14:41;7.73;;;3.80;;
7525;SDS011;3804;50.860;6.208;2023-04-15T06:17:09;9.53;;;3.83;;
7525;SDS011;3804;50.860;6.208;2023-04-15T06:19:37;8.83;;;3.50;;
7525;SDS011;3804;50.860;6.208;2023-04-15T06:22:06;10.97;;;3.43;;
7525;SDS011;3804;50.860;6.208;2023-04-15T06:24:34;8.97;;;3.80;;
7525;SDS011;3804;50.860;6.208;2023-04-15T06:27:03;8.37;;;3.23;;
7525;SDS011;3804;50.860;6.208;2023-04-15T06:29:31;8.30;;;3.83;;
7525;SDS011;3804;50.860;6.208;2023-04-15T06:32:00;8.30;;;3.40;;
7525;SDS011;3804;50.860;6.208;2023-04-15T06:34:28;10.33;;;3.60;;
7525;SDS011;3804;50.860;6.208;2023-04-15T06:36:56;6.50;;;3.10;;
7525;SDS011;3804;50.860;6.208;2023-04-15T06:39:24;10.97;;;3.87;;
7525;SDS011;3804;50.860;6.208;2023-04-15T06:41:52;9.37;;;3.50;;
7525;SDS011;3804;50.860;6.208;2023-04-15T06:44:21;10.47;;;3.53;;
7525;SDS011;3804;50.860;6.208;2023-04-15T06:46:49;7.77;;;3.40;;
7525;SDS011;3804;50.860;6.208;2023-04-15T06:49:17;9.60;;;4.00;;
7525;SDS011;3804;50.860;6.208;2023-04-15T06:51:45;9.13;;;3.57;;
7525;SDS011;3804;50.860;6.208;2023-04-15T06:54:14;9.97;;;3.87;;
7525;SDS011;3804;50.860;6.208;2023-04-15T06:56:42;7.17;;;3.50;;
7525;SDS011;3804;50.860;6.208;2023-04-15T06:59:10;7.60;;;3.30;;
7525;SDS011;3804;50.860;6.208;2023-04-15T07:01:41;9.37;;;4.10;;
7525;SDS011;3804;50.860;6.208;2023-04-15T07:04:09;10.03;;;3.30;;
7525;SDS011;3804;50.860;6.208;2023-04-15T07:06:38;6.50;;;3.23;;
7525;SDS011;3804;50.860;6.208;2023-04-15T07:09:06;6.43;;;3.33;;
7525;SDS011;3804;50.860;6.208;2023-04-15T07:11:35;9.10;;;3.23;;
7525;SDS011;3804;50.860;6.208;2023-04-15T07:14:03;8.60;;;3.37;;
7525;SDS011;3804;50.860;6.208;2023-04-15T07:16:31;6.67;;;3.00;;
7525;SDS011;3804;50.860;6.208;2023-04-15T07:18:59;7.53;;;3.70;;
7525;SDS011;3804;50.860;6.208;2023-04-15T07:21:28;8.43;;;3.33;;
7525;SDS011;3804;50.860;6.208;2023-04-15T07:23:56;6.60;;;3.57;;
7525;SDS011;3804;50.860;6.208;2023-04-15T07:26:25;6.20;;;3.43;;
7525;SDS011;3804;50.860;6.208;2023-04-15T07:28:54;7.87;;;3.77;;
7525;SDS011;3804;50.860;6.208;2023-04-15T07:31:22;6.40;;;3.90;;
7525;SDS011;3804;50.860;6.208;2023-04-15T07:33:50;7.20;;;4.10;;
7525;SDS011;3804;50.860;6.208;2023-04-15T07:36:18;7.63;;;4.00;;
7525;SDS011;3804;50.860;6.208;2023-04-15T07:38:46;9.13;;;3.97;;
7525;SDS011;3804;50.860;6.208;2023-04-15T07:41:14;7.03;;;3.83;;
7525;SDS011;3804;50.860;6.208;2023-04-15T07:43:42;11.73;;;4.90;;
7525;SDS011;3804;50.860;6.208;2023-04-15T07:46:10;6.90;;;4.20;;
7525;SDS011;3804;50.860;6.208;2023-04-15T07:48:39;7.00;;;3.67;;
7525;SDS011;3804;50.860;6.208;2023-04-15T07:51:08;6.90;;;4.50;;
7525;SDS011;3804;50.860;6.208;2023-04-15T07:53:37;5.23;;;4.27;;
7525;SDS011;3804;50.860;6.208;2023-04-15T07:56:05;11.43;;;4.77;;
7525;SDS011;3804;50.860;6.208;2023-04-15T07:58:33;8.63;;;5.10;;
7525;SDS011;3804;50.860;6.208;2023-04-15T08:01:03;9.40;;;5.83;;
7525;SDS011;3804;50.860;6.208;2023-04-15T08:03:31;8.27;;;5.57;;
7525;SDS011;3804;50.860;6.208;2023-04-15T08:05:59;11.03;;;6.10;;
7525;SDS011;3804;50.860;6.208;2023-04-15T08:08:27;11.17;;;5.80;;
7525;SDS011;3804;50.860;6.208;2023-04-15T08:10:56;7.63;;;4.90;;
7525;SDS011;3804;50.860;6.208;2023-04-15T08:13:25;8.17;;;5.63;;
7525;SDS011;3804;50.860;6.208;2023-04-15T08:18:40;8.20;;;5.40;;
7525;SDS011;3804;50.860;6.208;2023-04-15T08:21:09;10.03;;;5.93;;
7525;SDS011;3804;50.860;6.208;2023-04-15T08:23:37;9.47;;;6.50;;
7525;SDS011;3804;50.860;6.208;2023-04-15T08:26:05;9.07;;;6.73;;
7525;SDS011;3804;50.860;6.208;2023-04-15T08:28:34;11.87;;;6.80;;
7525;SDS011;3804;50.860;6.208;2023-04-15T08:31:03;8.43;;;5.97;;
7525;SDS011;3804;50.860;6.208;2023-04-15T08:33:31;9.93;;;6.67;;
7525;SDS011;3804;50.860;6.208;2023-04-15T08:35:59;9.50;;;7.07;;
7525;SDS011;3804;50.860;6.208;2023-04-15T08:38:27;9.67;;;6.80;;
7525;SDS011;3804;50.860;6.208;2023-04-15T08:40:55;8.30;;;6.13;;
7525;SDS011;3804;50.860;6.208;2023-04-15T08:43:27;12.07;;;7.40;;
7525;SDS011;3804;50.860;6.208;2023-04-15T08:46:00;10.40;;;7.50;;
7525;SDS011;3804;50.860;6.208;2023-04-15T08:48:29;8.23;;;6.33;;
7525;SDS011;3804;50.860;6.208;2023-04-15T08:50:59;9.00;;;6.83;;
7525;SDS011;3804;50.860;6.208;2023-04-15T08:53:28;9.90;;;7.13;;
7525;SDS011;3804;50.860;6.208;2023-04-15T08:55:56;10.40;;;7.30;;
7525;SDS011;3804;50.860;6.208;2023-04-15T08:58:26;12.63;;;7.77;;
7525;SDS011;3804;50.860;6.208;2023-04-15T09:00:55;10.83;;;6.57;;
7525;SDS011;3804;50.860;6.208;2023-04-15T09:03:23;8.20;;;6.97;;
7525;SDS011;3804;50.860;6.208;2023-04-15T09:05:52;8.97;;;6.90;;
7525;SDS011;3804;50.860;6.208;2023-04-15T09:08:20;7.70;;;6.80;;
7525;SDS011;3804;50.860;6.208;2023-04-15T09:10:49;7.77;;;6.50;;
7525;SDS011;3804;50.860;6.208;2023-04-15T09:13:17;6.60;;;4.90;;
7525;SDS011;3804;50.860;6.208;2023-04-15T09:15:45;7.77;;;5.00;;
7525;SDS011;3804;50.860;6.208;2023-04-15T09:18:19;6.53;;;5.60;;
7525;SDS011;3804;50.860;6.208;2023-04-15T09:20:54;5.97;;;4.83;;
7525;SDS011;3804;50.860;6.208;2023-04-15T09:23:22;5.63;;;4.07;;
7525;SDS011;3804;50.860;6.208;2023-04-15T09:25:50;7.37;;;4.17;;
7525;SDS011;3804;50.860;6.208;2023-04-15T09:28:22;5.27;;;4.70;;
7525;SDS011;3804;50.860;6.208;2023-04-15T09:30:51;5.40;;;3.87;;
7525;SDS011;3804;50.860;6.208;2023-04-15T09:33:20;5.83;;;4.73;;
7525;SDS011;3804;50.860;6.208;2023-04-15T09:36:10;3.83;;;3.30;;
7525;SDS011;3804;50.860;6.208;2023-04-15T09:38:47;4.73;;;3.30;;
7525;SDS011;3804;50.860;6.208;2023-04-15T09:41:20;5.63;;;3.73;;
7525;SDS011;3804;50.860;6.208;2023-04-15T09:43:49;4.73;;;4.10;;
7525;SDS011;3804;50.860;6.208;2023-04-15T09:46:17;4.20;;;3.63;;
7525;SDS011;3804;50.860;6.208;2023-04-15T09:48:45;5.70;;;4.67;;
7525;SDS011;3804;50.860;6.208;2023-04-15T09:51:13;5.13;;;4.63;;
7525;SDS011;3804;50.860;6.208;2023-04-15T09:53:42;6.43;;;5.40;;
7525;SDS011;3804;50.860;6.208;2023-04-15T09:56:10;6.73;;;4.90;;
7525;SDS011;3804;50.860;6.208;2023-04-15T09:58:38;5.17;;;3.53;;
7525;SDS011;3804;50.860;6.208;2023-04-15T10:01:08;6.47;;;4.20;;
7525;SDS011;3804;50.860;6.208;2023-04-15T10:03:39;6.03;;;4.57;;
7525;SDS011;3804;50.860;6.208;2023-04-15T10:06:09;4.73;;;4.03;;
7525;SDS011;3804;50.860;6.208;2023-04-15T10:08:37;7.40;;;4.90;;
7525;SDS011;3804;50.860;6.208;2023-04-15T10:11:05;5.33;;;4.70;;
7525;SDS011;3804;50.860;6.208;2023-04-15T10:13:34;6.13;;;3.90;;
7525;SDS011;3804;50.860;6.208;2023-04-15T10:16:13;6.43;;;4.33;;
7525;SDS011;3804;50.860;6.208;2023-04-15T10:18:46;6.90;;;5.30;;
7525;SDS011;3804;50.860;6.208;2023-04-15T10:21:14;7.43;;;5.10;;
7525;SDS011;3804;50.860;6.208;2023-04-15T10:23:45;7.00;;;5.93;;
7525;SDS011;3804;50.860;6.208;2023-04-15T10:26:14;8.47;;;6.67;;
7525;SDS011;3804;50.860;6.208;2023-04-15T10:28:44;9.97;;;6.97;;
7525;SDS011;3804;50.860;6.208;2023-04-15T10:31:14;8.03;;;5.80;;
7525;SDS011;3804;50.860;6.208;2023-04-15T10:33:43;6.47;;;5.60;;
7525;SDS011;3804;50.860;6.208;2023-04-15T10:36:12;11.43;;;5.80;;
7525;SDS011;3804;50.860;6.208;2023-04-15T10:38:42;7.87;;;5.23;;
7525;SDS011;3804;50.860;6.208;2023-04-15T10:44:06;6.17;;;4.03;;
7525;SDS011;3804;50.860;6.208;2023-04-15T10:46:36;4.70;;;3.63;;
7525;SDS011;3804;50.860;6.208;2023-04-15T10:49:08;6.03;;;3.97;;
7525;SDS011;3804;50.860;6.208;2023-04-15T10:51:41;5.30;;;4.07;;
7525;SDS011;3804;50.860;6.208;2023-04-15T10:56:41;3.63;;;3.13;;
7525;SDS011;3804;50.860;6.208;2023-04-15T10:59:10;5.73;;;3.90;;
7525;SDS011;3804;50.860;6.208;2023-04-15T11:07:14;3.10;;;2.77;;
7525;SDS011;3804;50.860;6.208;2023-04-15T11:09:42;3.60;;;2.73;;
7525;SDS011;3804;50.860;6.208;2023-04-15T11:12:10;3.00;;;2.70;;
7525;SDS011;3804;50.860;6.208;2023-04-15T11:14:39;3.00;;;2.70;;
7525;SDS011;3804;50.860;6.208;2023-04-15T11:17:07;3.60;;;3.13;;
7525;SDS011;3804;50.860;6.208;2023-04-15T11:19:36;5.37;;;2.80;;
7525;SDS011;3804;50.860;6.208;2023-04-15T11:22:06;4.10;;;3.60;;
7525;SDS011;3804;50.860;6.208;2023-04-15T11:24:34;3.33;;;3.03;;
7525;SDS011;3804;50.860;6.208;2023-04-15T11:27:02;3.10;;;2.80;;
7525;SDS011;3804;50.860;6.208;2023-04-15T11:29:30;5.73;;;3.00;;
7525;SDS011;3804;50.860;6.208;2023-04-15T11:32:05;2.93;;;2.70;;
7525;SDS011;3804;50.860;6.208;2023-04-15T11:34:34;3.30;;;2.87;;
7525;SDS011;3804;50.860;6.208;2023-04-15T11:37:04;3.00;;;2.70;;
7525;SDS011;3804;50.860;6.208;2023-04-15T11:39:33;2.50;;;2.30;;
7525;SDS011;3804;50.860;6.208;2023-04-15T11:42:01;4.00;;;3.43;;
7525;SDS011;3804;50.860;6.208;2023-04-15T11:44:29;3.07;;;2.77;;
7525;SDS011;3804;50.860;6.208;2023-04-15T11:46:57;3.57;;;2.70;;
7525;SDS011;3804;50.860;6.208;2023-04-15T11:49:26;3.07;;;2.47;;
7525;SDS011;3804;50.860;6.208;2023-04-15T11:51:53;2.53;;;2.33;;
7525;SDS011;3804;50.860;6.208;2023-04-15T11:54:20;2.57;;;2.37;;
7525;SDS011;3804;50.860;6.208;2023-04-15T11:56:50;3.77;;;3.40;;
7525;SDS011;3804;50.860;6.208;2023-04-15T11:59:18;4.63;;;2.83;;
7525;SDS011;3804;50.860;6.208;2023-04-15T12:01:44;2.90;;;2.67;;
7525;SDS011;3804;50.860;6.208;2023-04-15T12:04:14;3.40;;;2.80;;
7525;SDS011;3804;50.860;6.208;2023-04-15T12:06:42;3.03;;;2.73;;
7525;SDS011;3804;50.860;6.208;2023-04-15T12:09:09;3.53;;;2.97;;
7525;SDS011;3804;50.860;6.208;2023-04-15T12:11:38;4.70;;;3.20;;
7525;SDS011;3804;50.860;6.208;2023-04-15T12:16:36;3.03;;;2.60;;
7525;SDS011;3804;50.860;6.208;2023-04-15T12:19:16;3.27;;;2.93;;
7525;SDS011;3804;50.860;6.208;2023-04-15T12:21:44;4.33;;;3.37;;
7525;SDS011;3804;50.860;6.208;2023-04-15T12:24:11;3.60;;;3.00;;
7525;SDS011;3804;50.860;6.208;2023-04-15T12:26:45;3.90;;;3.27;;
7525;SDS011;3804;50.860;6.208;2023-04-15T12:29:13;3.47;;;3.00;;
7525;SDS011;3804;50.860;6.208;2023-04-15T12:31:53;3.37;;;3.07;;
7525;SDS011;3804;50.860;6.208;2023-04-15T12:36:54;4.53;;;3.10;;
7525;SDS011;3804;50.860;6.208;2023-04-15T12:39:21;2.90;;;2.70;;
7525;SDS011;3804;50.860;6.208;2023-04-15T12:41:49;4.10;;;2.77;;
7525;SDS011;3804;50.860;6.208;2023-04-15T12:44:15;2.77;;;2.53;;
7525;SDS011;3804;50.860;6.208;2023-04-15T12:46:42;3.10;;;2.60;;
7525;SDS011;3804;50.860;6.208;2023-04-15T12:49:09;3.83;;;2.67;;
7525;SDS011;3804;50.860;6.208;2023-04-15T12:51:36;3.10;;;2.70;;
7525;SDS011;3804;50.860;6.208;2023-04-15T12:54:02;2.50;;;2.30;;
7525;SDS011;3804;50.860;6.208;2023-04-15T12:56:30;2.60;;;2.27;;
7525;SDS011;3804;50.860;6.208;2023-04-15T12:58:57;2.70;;;2.00;;
7525;SDS011;3804;50.860;6.208;2023-04-15T13:01:24;2.93;;;2.13;;
7525;SDS011;3804;50.860;6.208;2023-04-15T13:03:51;3.37;;;2.23;;
7525;SDS011;3804;50.860;6.208;2023-04-15T13:06:18;2.90;;;2.40;;
7525;SDS011;3804;50.860;6.208;2023-04-15T13:08:44;3.40;;;2.27;;
7525;SDS011;3804;50.860;6.208;2023-04-15T13:11:23;2.77;;;2.10;;
7525;SDS011;3804;50.860;6.208;2023-04-15T13:13:51;3.03;;;1.87;;
7525;SDS011;3804;50.860;6.208;2023-04-15T13:16:18;2.63;;;2.00;;
7525;SDS011;3804;50.860;6.208;2023-04-15T13:18:45;2.53;;;2.30;;
7525;SDS011;3804;50.860;6.208;2023-04-15T13:21:12;3.47;;;2.30;;
7525;SDS011;3804;50.860;6.208;2023-04-15T13:23:42;2.70;;;2.20;;
7525;SDS011;3804;50.860;6.208;2023-04-15T13:26:09;2.30;;;2.10;;
7525;SDS011;3804;50.860;6.208;2023-04-15T13:28:36;2.83;;;2.53;;
7525;SDS011;3804;50.860;6.208;2023-04-15T13:31:03;2.90;;;2.50;;
7525;SDS011;3804;50.860;6.208;2023-04-15T13:33:30;2.80;;;1.80;;
7525;SDS011;3804;50.860;6.208;2023-04-15T13:35:57;3.07;;;2.70;;
7525;SDS011;3804;50.860;6.208;2023-04-15T13:38:24;2.90;;;2.10;;
7525;SDS011;3804;50.860;6.208;2023-04-15T13:40:52;3.17;;;2.50;;
7525;SDS011;3804;50.860;6.208;2023-04-15T13:43:19;3.33;;;2.30;;
7525;SDS011;3804;50.860;6.208;2023-04-15T13:45:48;2.93;;;2.20;;
7525;SDS011;3804;50.860;6.208;2023-04-15T13:48:15;2.37;;;1.97;;
7525;SDS011;3804;50.860;6.208;2023-04-15T13:50:42;3.70;;;2.23;;
7525;SDS011;3804;50.860;6.208;2023-04-15T13:53:11;2.30;;;2.10;;
7525;SDS011;3804;50.860;6.208;2023-04-15T13:55:38;3.53;;;2.60;;
7525;SDS011;3804;50.860;6.208;2023-04-15T13:58:08;3.43;;;2.43;;
7525;SDS011;3804;50.860;6.208;2023-04-15T14:00:35;3.10;;;2.80;;
7525;SDS011;3804;50.860;6.208;2023-04-15T14:03:02;3.37;;;2.90;;
7525;SDS011;3804;50.860;6.208;2023-04-15T14:05:29;3.77;;;2.50;;
7525;SDS011;3804;50.860;6.208;2023-04-15T14:07:56;3.23;;;2.90;;
7525;SDS011;3804;50.860;6.208;2023-04-15T14:10:24;5.27;;;3.17;;
7525;SDS011;3804;50.860;6.208;2023-04-15T14:12:51;3.20;;;2.60;;
7525;SDS011;3804;50.860;6.208;2023-04-15T14:15:17;3.10;;;2.73;;
7525;SDS011;3804;50.860;6.208;2023-04-15T14:17:44;2.93;;;2.37;;
7525;SDS011;3804;50.860;6.208;2023-04-15T14:20:11;4.87;;;3.63;;
7525;SDS011;3804;50.860;6.208;2023-04-15T14:22:41;2.97;;;2.67;;
7525;SDS011;3804;50.860;6.208;2023-04-15T14:25:08;2.90;;;2.30;;
7525;SDS011;3804;50.860;6.208;2023-04-15T14:27:42;2.30;;;1.67;;
7525;SDS011;3804;50.860;6.208;2023-04-15T14:30:09;2.57;;;1.87;;
7525;SDS011;3804;50.860;6.208;2023-04-15T14:32:36;2.90;;;2.33;;
7525;SDS011;3804;50.860;6.208;2023-04-15T14:35:03;3.20;;;2.77;;
7525;SDS011;3804;50.860;6.208;2023-04-15T14:37:29;2.73;;;2.20;;
7525;SDS011;3804;50.860;6.208;2023-04-15T14:39:57;2.67;;;2.27;;
7525;SDS011;3804;50.860;6.208;2023-04-15T14:42:24;3.00;;;2.40;;
7525;SDS011;3804;50.860;6.208;2023-04-15T14:44:51;2.67;;;2.47;;
7525;SDS011;3804;50.860;6.208;2023-04-15T14:47:17;2.80;;;2.03;;
7525;SDS011;3804;50.860;6.208;2023-04-15T14:49:44;3.07;;;2.10;;
7525;SDS011;3804;50.860;6.208;2023-04-15T14:52:11;2.40;;;2.20;;
7525;SDS011;3804;50.860;6.208;2023-04-15T14:54:38;2.93;;;2.43;;
7525;SDS011;3804;50.860;6.208;2023-04-15T14:57:04;2.97;;;2.70;;
7525;SDS011;3804;50.860;6.208;2023-04-15T14:59:31;2.83;;;2.60;;
7525;SDS011;3804;50.860;6.208;2023-04-15T15:01:59;3.90;;;2.60;;
7525;SDS011;3804;50.860;6.208;2023-04-15T15:04:26;2.73;;;2.30;;
7525;SDS011;3804;50.860;6.208;2023-04-15T15:06:52;2.50;;;2.27;;
7525;SDS011;3804;50.860;6.208;2023-04-15T15:09:20;4.90;;;2.60;;
7525;SDS011;3804;50.860;6.208;2023-04-15T15:11:49;4.27;;;3.70;;
7525;SDS011;3804;50.860;6.208;2023-04-15T15:14:16;2.93;;;2.43;;
7525;SDS011;3804;50.860;6.208;2023-04-15T15:16:43;3.00;;;2.47;;
7525;SDS011;3804;50.860;6.208;2023-04-15T15:19:10;4.63;;;2.20;;
7525;SDS011;3804;50.860;6.208;2023-04-15T15:21:37;3.10;;;2.60;;
7525;SDS011;3804;50.860;6.208;2023-04-15T15:24:04;3.40;;;2.40;;
7525;SDS011;3804;50.860;6.208;2023-04-15T15:26:31;2.37;;;2.17;;
7525;SDS011;3804;50.860;6.208;2023-04-15T15:28:58;2.00;;;1.80;;
7525;SDS011;3804;50.860;6.208;2023-04-15T15:31:25;3.60;;;2.07;;
7525;SDS011;3804;50.860;6.208;2023-04-15T15:33:52;2.77;;;2.20;;
7525;SDS011;3804;50.860;6.208;2023-04-15T15:36:18;6.20;;;1.90;;
7525;SDS011;3804;50.860;6.208;2023-04-15T15:38:45;1.60;;;1.47;;
7525;SDS011;3804;50.860;6.208;2023-04-15T15:41:12;2.27;;;1.70;;